Date,TemperatureHighF,TemperatureAvgF,TemperatureLowF,DewpointHighF,DewpointAvgF,DewpointLowF,HumidityHigh,HumidityAvg,HumidityLow,PressureMaxIn,PressureMinIn,WindSpeedMaxMPH,WindSpeedAvgMPH,GustSpeedMaxMPH,PrecipitationSumIn
2013-5-1,57,44,35,48,38,33,94,81,51,30.42,29.90,13,8,19,0.31
2013-5-2,34,32,31,33,32,31,100,99,95,30.48,30.40,12,6,16,0.25
2013-5-3,34,33,31,34,32,31,100,98,91,30.40,30.13,9,3,12,0.48
2013-5-4,50,41,34,41,37,32,96,85,68,30.14,30.08,8,5,11,0.43
2013-5-5,66,51,37,46,40,34,91,70,48,30.13,30.02,7,4,9,0.00
2013-5-6,74,60,43,45,39,33,86,52,23,30.08,29.96,7,2,10,0.00
2013-5-7,79,65,49,44,40,32,81,45,19,30.03,29.91,8,2,19,0.00
2013-5-8,78,66,49,52,43,37,82,47,23,29.96,29.88,6,2,9,0.00
2013-5-9,64,54,44,53,48,40,96,80,61,30.03,29.89,11,5,17,0.43
2013-5-10,65,51,39,39,28,19,85,47,17,30.06,29.88,11,5,17,0.00
2013-5-11,54,46,40,45,28,20,81,51,35,30.09,29.82,26,13,29,0.02
2013-5-12,54,45,35,26,18,10,56,36,19,30.16,30.06,16,9,21,0.00
2013-5-13,62,51,33,37,27,19,68,41,21,30.13,29.70,8,4,11,0.00
2013-5-14,91,71,49,50,42,28,76,40,14,29.72,29.39,18,6,26,0.00
2013-5-15,76,68,59,46,42,35,59,41,27,29.83,29.53,14,7,19,0.00
2013-5-16,80,70,54,47,40,29,76,38,19,29.88,29.78,11,4,14,0.00
2013-5-17,68,56,52,54,47,37,94,74,32,30.01,29.88,13,9,20,0.02
2013-5-18,79,64,53,61,55,49,88,73,51,30.01,29.80,10,4,13,0.01
2013-5-19,83,70,63,63,61,59,98,76,45,29.83,29.58,11,5,15,0.36
2013-5-20,75,68,62,63,59,54,99,76,50,29.60,29.50,13,5,13,0.71
2013-5-21,69,63,58,61,57,52,98,84,60,29.65,29.50,12,4,13,0.06
2013-5-22,58,54,50,55,50,47,94,88,79,29.91,29.63,11,6,15,0.02
2013-5-23,60,52,43,49,32,24,86,50,26,30.32,29.91,15,9,17,0.02
2013-5-24,66,54,39,41,33,29,78,47,26,30.41,30.24,8,3,10,0.02
2013-5-25,60,56,52,50,45,38,91,67,45,30.29,30.23,10,4,12,0.01
2013-5-26,64,57,48,46,39,32,77,52,33,30.26,30.09,13,6,21,0.02
2013-5-27,60,57,52,54,48,40,96,73,54,30.09,29.84,14,8,21,0.01
2013-5-28,58,56,52,57,54,51,98,95,89,29.83,29.69,6,3,10,0.01
2013-5-29,78,63,57,65,60,56,98,91,63,29.83,29.69,11,4,14,0.01
2013-5-30,76,70,64,68,64,61,96,83,59,29.73,29.51,12,6,20,0.04
2013-5-31,77,67,57,63,59,52,92,77,51,29.59,29.50,12,6,19,0.02